Time;durP1;ratioP1;P1;durP2;ratioP2;P2;SDS_P1;SDS_P2;PMS_P1;PMS_P2;Temp;Humidity;BMP_temperature;BMP_pressure;BME280_temperature;BME280_humidity;BME280_pressure;Samples;Min_cycle;Max_cycle;Signal;HPM_P1;HPM_P2
2022/08/15 00:01:36;;;;;;;8.00;7.60;;;;;;;24.07;55.35;99652.38;5011950;28;20294;-76
2022/08/15 00:04:04;;;;;;;8.20;7.70;;;;;;;24.07;54.98;99652.38;5012000;28;20258;-75
2022/08/15 00:06:34;;;;;;;9.00;8.43;;;;;;;24.11;54.73;99660.97;5011661;28;20848;-75
2022/08/15 00:09:05;;;;;;;8.40;7.90;;;;;;;24.09;54.97;99666.44;5012135;28;20257;-76
2022/08/15 00:11:36;;;;;;;8.60;8.00;;;;;;;24.05;55.15;99654.34;5011881;28;20303;-76
2022/08/15 00:14:05;;;;;;;8.43;7.67;;;;;;;24.08;54.96;99648.75;5011668;28;20767;-75
2022/08/15 00:16:36;;;;;;;8.73;8.00;;;;;;;24.01;55.75;99642.25;5011465;28;20727;-75
2022/08/15 00:19:07;;;;;;;8.17;7.67;;;;;;;23.96;55.62;99633.81;5011917;28;20242;-76
2022/08/15 00:21:34;;;;;;;8.73;8.13;;;;;;;23.91;56.10;99628.06;5011650;28;20209;-76
2022/08/15 00:24:02;;;;;;;8.70;8.10;;;;;;;23.82;56.56;99626.19;5011563;28;20718;-76
2022/08/15 00:26:29;;;;;;;7.90;7.33;;;;;;;23.78;56.54;99620.28;5011540;28;20643;-76
2022/08/15 00:28:55;;;;;;;8.00;7.60;;;;;;;23.79;56.54;99622.81;5011814;28;20214;-76
2022/08/15 00:31:22;;;;;;;8.03;7.60;;;;;;;23.71;56.68;99619.94;5011826;28;20253;-76
2022/08/15 00:33:50;;;;;;;9.10;8.57;;;;;;;23.69;56.44;99629.06;5011361;28;20234;-76
2022/08/15 00:36:16;;;;;;;9.00;8.50;;;;;;;23.65;56.96;99611.66;5011482;28;20206;-75
2022/08/15 00:38:43;;;;;;;8.70;8.10;;;;;;;23.59;57.01;99607.69;5011489;28;20272;-76
2022/08/15 00:43:59;;;;;;;8.50;7.87;;;;;;;23.51;57.14;99603.03;5011528;28;20230;-75
2022/08/15 00:46:29;;;;;;;8.30;7.73;;;;;;;23.49;56.87;99606.78;5011158;28;20256;-75
2022/08/15 00:48:56;;;;;;;8.47;7.97;;;;;;;23.50;57.47;99589.84;5011571;28;20206;-76
2022/08/15 00:51:27;;;;;;;9.07;8.47;;;;;;;23.40;58.05;99573.81;5011704;28;20622;-76
2022/08/15 00:53:59;;;;;;;9.27;8.67;;;;;;;23.37;58.00;99558.09;5011656;28;20231;-76
2022/08/15 00:56:31;;;;;;;9.10;8.50;;;;;;;23.38;57.60;99562.44;5012244;28;20253;-76
2022/08/15 00:58:58;;;;;;;8.47;7.97;;;;;;;23.27;58.33;99559.84;5014913;28;20207;-76
2022/08/15 01:01:25;;;;;;;8.63;7.93;;;;;;;23.26;58.38;99564.34;5015232;28;20623;-77
2022/08/15 01:03:52;;;;;;;9.17;8.47;;;;;;;23.25;57.77;99564.47;5015089;28;20277;-75
2022/08/15 01:06:21;;;;;;;8.87;8.27;;;;;;;23.17;57.85;99571.31;5014975;28;20289;-76
2022/08/15 01:08:48;;;;;;;8.70;8.20;;;;;;;23.21;58.10;99566.56;5014838;28;20301;-76
2022/08/15 01:11:23;;;;;;;9.53;8.80;;;;;;;23.18;58.18;99570.31;5014800;28;20202;-76
2022/08/15 01:13:54;;;;;;;9.47;8.87;;;;;;;23.21;58.41;99553.25;5014466;28;20273;-76
2022/08/15 01:16:22;;;;;;;8.67;8.07;;;;;;;23.25;58.39;99552.03;5014680;28;20280;-76
2022/08/15 01:18:50;;;;;;;9.30;8.70;;;;;;;23.24;58.34;99546.81;5014355;28;20261;-76
2022/08/15 01:21:24;;;;;;;8.93;8.43;;;;;;;23.27;58.64;99542.09;5014582;28;20230;-76
2022/08/15 01:24:03;;;;;;;8.73;8.13;;;;;;;23.30;58.85;99532.97;5014493;28;20262;-76
2022/08/15 01:26:32;;;;;;;8.00;7.40;;;;;;;23.34;58.45;99529.91;5014452;28;20264;-76
2022/08/15 01:28:59;;;;;;;8.50;7.90;;;;;;;23.35;58.30;99550.25;5014591;28;20210;-76
2022/08/15 01:31:26;;;;;;;8.40;7.90;;;;;;;23.24;57.74;99568.13;5014300;28;20750;-76
2022/08/15 01:33:57;;;;;;;8.00;7.50;;;;;;;23.23;58.67;99537.13;5013997;28;20280;-76
2022/08/15 01:36:26;;;;;;;8.87;8.17;;;;;;;23.20;59.22;99511.63;5014079;28;20290;-76
2022/08/15 01:39:00;;;;;;;9.57;8.70;;;;;;;23.14;59.85;99493.53;5014059;28;20222;-76
2022/08/15 01:41:36;;;;;;;8.73;8.23;;;;;;;23.17;59.32;99499.44;5014439;28;20207;-76
2022/08/15 01:44:10;;;;;;;8.47;7.87;;;;;;;23.20;59.49;99504.47;5014166;28;20230;-76
2022/08/15 01:46:41;;;;;;;7.80;7.40;;;;;;;23.20;59.67;99492.97;5014168;28;20218;-76
2022/08/15 01:49:13;;;;;;;8.60;8.00;;;;;;;23.16;58.91;99500.38;5013872;28;20262;-76
2022/08/15 01:51:41;;;;;;;11.53;8.33;;;;;;;23.14;58.80;99525.47;5014224;28;20210;-76
2022/08/15 01:54:12;;;;;;;8.50;7.90;;;;;;;23.20;59.40;99515.13;5013883;28;20239;-76
2022/08/15 01:56:42;;;;;;;8.57;8.07;;;;;;;23.20;59.70;99498.31;5013714;28;20258;-76
2022/08/15 01:59:14;;;;;;;8.67;8.17;;;;;;;23.18;60.16;99489.63;5013920;28;20210;-76
2022/08/15 02:01:45;;;;;;;8.43;7.97;;;;;;;23.14;59.95;99486.38;5013628;28;20210;-76
2022/08/15 02:04:13;;;;;;;8.90;8.30;;;;;;;23.05;60.14;99481.84;5013945;28;20257;-76
2022/08/15 02:06:42;;;;;;;8.90;8.33;;;;;;;23.02;60.39;99473.25;5013543;28;20232;-75
2022/08/15 02:09:12;;;;;;;8.40;7.83;;;;;;;23.09;60.21;99477.97;5012607;28;20216;-76
2022/08/15 02:11:40;;;;;;;7.83;7.33;;;;;;;23.14;59.22;99496.19;5013576;28;20224;-76
2022/08/15 02:14:07;;;;;;;8.77;8.17;;;;;;;23.16;59.47;99499.56;5013767;28;20227;-76
2022/08/15 02:16:36;;;;;;;8.37;7.77;;;;;;;23.13;59.88;99499.81;5013468;28;20269;-76
2022/08/15 02:19:04;;;;;;;9.37;8.67;;;;;;;23.12;60.03;99482.16;5013276;28;20203;-75
2022/08/15 02:21:31;;;;;;;8.50;8.00;;;;;;;23.14;60.24;99482.88;5013530;28;20205;-75
2022/08/15 02:23:59;;;;;;;8.73;8.23;;;;;;;23.12;60.15;99484.81;5013254;28;20226;-76
2022/08/15 02:26:26;;;;;;;8.20;7.70;;;;;;;23.05;60.56;99470.34;5012962;28;20592;-76
2022/08/15 02:28:54;;;;;;;9.20;8.70;;;;;;;23.02;60.40;99476.78;5013416;28;20210;-75
2022/08/15 02:31:24;;;;;;;9.63;9.03;;;;;;;22.98;60.10;99478.00;5013366;28;20206;-75
2022/08/15 02:33:55;;;;;;;9.73;8.93;;;;;;;22.93;59.85;99496.16;5012982;28;20304;-76
2022/08/15 02:36:23;;;;;;;9.07;8.47;;;;;;;22.90;59.82;99493.78;5013099;28;20297;-76
2022/08/15 02:38:51;;;;;;;9.10;8.30;;;;;;;22.93;59.32;99501.50;5013180;28;20253;-76
2022/08/15 02:41:21;;;;;;;9.27;8.67;;;;;;;22.95;59.46;99511.06;5012916;28;20226;-76
2022/08/15 02:43:49;;;;;;;9.27;8.60;;;;;;;22.93;59.96;99504.16;5013159;28;20222;-75
2022/08/15 02:46:17;;;;;;;9.33;8.60;;;;;;;22.95;60.63;99479.13;5012915;28;20260;-76
2022/08/15 02:48:46;;;;;;;9.30;8.70;;;;;;;22.93;60.53;99482.88;5012674;28;20207;-76
2022/08/15 02:51:15;;;;;;;9.83;9.20;;;;;;;22.92;60.21;99481.19;5012772;28;20206;-76
2022/08/15 02:53:44;;;;;;;9.23;8.63;;;;;;;22.89;60.83;99458.31;5012571;28;20234;-75
2022/08/15 02:56:11;;;;;;;9.20;8.60;;;;;;;22.84;60.74;99452.56;5012761;28;20304;-77
2022/08/15 02:58:37;;;;;;;9.27;8.67;;;;;;;22.82;61.28;99451.03;5013045;28;20245;-76
2022/08/15 03:01:08;;;;;;;9.53;9.00;;;;;;;22.89;60.59;99447.69;5012819;28;20257;-76
2022/08/15 03:03:38;;;;;;;8.60;8.03;;;;;;;22.85;61.26;99438.28;5012502;28;20311;-76
2022/08/15 03:06:07;;;;;;;9.57;8.80;;;;;;;22.81;61.43;99436.84;5012566;28;20210;-77
2022/08/15 03:08:34;;;;;;;9.50;8.80;;;;;;;22.81;61.38;99431.53;5012848;28;20211;-77
2022/08/15 03:11:01;;;;;;;9.30;8.80;;;;;;;22.75;61.98;99419.59;5012917;28;20261;-77
2022/08/15 03:13:27;;;;;;;9.40;8.60;;;;;;;22.78;62.05;99419.34;5012456;28;20304;-76
2022/08/15 03:15:56;;;;;;;9.30;8.43;;;;;;;22.76;61.88;99415.97;5012353;28;20211;-77
2022/08/15 03:18:24;;;;;;;8.80;8.30;;;;;;;22.74;62.08;99412.59;5012067;28;20672;-76
2022/08/15 03:20:52;;;;;;;9.27;8.67;;;;;;;22.77;62.38;99406.16;5011841;28;20206;-76
2022/08/15 03:23:19;;;;;;;8.80;8.30;;;;;;;22.83;61.85;99418.09;5012497;28;20223;-76
2022/08/15 03:25:48;;;;;;;9.60;9.00;;;;;;;22.79;62.30;99409.53;5012373;28;20213;-76
2022/08/15 03:28:16;;;;;;;9.00;8.40;;;;;;;22.77;62.54;99392.88;5012396;28;20202;-77
2022/08/15 03:30:42;;;;;;;9.07;8.43;;;;;;;22.75;62.86;99381.50;5012314;28;20579;-77
2022/08/15 03:33:09;;;;;;;8.70;8.20;;;;;;;22.71;62.89;99372.94;5011751;28;20326;-77
2022/08/15 03:35:40;;;;;;;8.77;8.27;;;;;;;22.72;63.15;99361.34;5012243;28;20242;-77
2022/08/15 03:38:08;;;;;;;9.00;8.50;;;;;;;22.73;63.29;99368.34;5012467;28;20209;-76
2022/08/15 03:40:35;;;;;;;8.93;8.33;;;;;;;22.74;63.33;99362.06;5012083;28;20219;-76
2022/08/15 03:43:04;;;;;;;8.70;8.10;;;;;;;22.77;63.34;99367.13;5012054;28;20288;-76
2022/08/15 03:45:31;;;;;;;9.00;8.50;;;;;;;22.75;63.27;99357.56;5011883;28;20210;-77
2022/08/15 03:47:58;;;;;;;8.30;7.80;;;;;;;22.74;62.96;99369.19;5011779;28;20264;-77
2022/08/15 03:50:24;;;;;;;8.87;8.37;;;;;;;22.76;62.62;99381.38;5012188;28;20331;-77
2022/08/15 03:52:54;;;;;;;9.00;8.50;;;;;;;22.76;62.67;99392.03;5012216;28;20269;-77
2022/08/15 03:55:24;;;;;;;9.53;8.63;;;;;;;22.75;62.66;99390.34;5011761;28;20225;-76
2022/08/15 03:57:50;;;;;;;8.90;8.40;;;;;;;22.75;62.90;99393.00;5012005;28;20203;-76
2022/08/15 04:00:20;;;;;;;8.50;8.00;;;;;;;22.74;62.80;99401.13;5012185;28;20215;-76
2022/08/15 04:02:46;;;;;;;8.40;7.90;;;;;;;22.75;62.91;99387.66;5011880;28;20285;-76
2022/08/15 04:05:13;;;;;;;9.40;8.90;;;;;;;22.77;62.37;99409.69;5011869;28;20264;-76
2022/08/15 04:07:41;;;;;;;9.50;8.80;;;;;;;22.80;62.63;99396.09;5012050;28;20208;-76
2022/08/15 04:10:11;;;;;;;9.10;8.60;;;;;;;22.83;62.37;99397.66;5012094;28;20249;-76
2022/08/15 04:12:42;;;;;;;9.03;8.43;;;;;;;22.86;61.73;99415.19;5011898;28;20229;-76
2022/08/15 04:15:12;;;;;;;9.50;8.83;;;;;;;22.88;61.73;99429.22;5011504;28;20283;-77
2022/08/15 04:17:38;;;;;;;8.50;8.10;;;;;;;22.91;61.88;99429.78;5011836;28;20242;-76
2022/08/15 04:20:08;;;;;;;9.00;8.30;;;;;;;22.93;61.69;99429.63;5011652;28;20203;-76
2022/08/15 04:22:37;;;;;;;9.00;8.47;;;;;;;22.95;61.34;99433.88;5011640;28;20258;-76
2022/08/15 04:25:06;;;;;;;8.80;8.20;;;;;;;22.98;61.40;99443.41;5011439;28;20220;-76
2022/08/15 04:27:32;;;;;;;9.27;8.67;;;;;;;22.98;61.87;99424.75;5011662;28;20210;-77
2022/08/15 04:30:00;;;;;;;8.87;8.30;;;;;;;22.96;62.07;99406.25;5011957;28;20211;-76
2022/08/15 04:32:27;;;;;;;9.20;8.63;;;;;;;22.95;62.40;99403.72;5013928;28;20715;-77
2022/08/15 04:34:54;;;;;;;9.73;9.03;;;;;;;22.96;62.43;99400.94;5015291;28;20280;-76
2022/08/15 04:37:21;;;;;;;9.00;8.43;;;;;;;22.97;61.97;99413.28;5015434;28;20214;-77
2022/08/15 04:39:50;;;;;;;9.40;8.70;;;;;;;22.97;61.83;99420.41;5015091;28;20219;-76
2022/08/15 04:42:18;;;;;;;8.90;8.33;;;;;;;22.97;61.73;99426.59;5015140;28;20294;-76
2022/08/15 04:44:45;;;;;;;9.00;8.40;;;;;;;22.98;61.75;99436.25;5015237;28;20206;-76
2022/08/15 04:47:14;;;;;;;10.67;8.20;;;;;;;22.98;61.58;99428.25;5015436;28;20202;-77
2022/08/15 04:49:40;;;;;;;9.57;8.87;;;;;;;23.02;61.19;99439.53;5015485;28;20302;-76
2022/08/15 04:52:10;;;;;;;9.67;9.00;;;;;;;23.05;60.61;99467.69;5015078;28;20206;-76
2022/08/15 04:54:37;;;;;;;9.43;8.77;;;;;;;23.06;59.87;99491.53;5015053;28;20241;-76
2022/08/15 04:57:03;;;;;;;11.40;10.60;;;;;;;23.00;60.44;99503.50;5015062;28;20665;-76
2022/08/15 04:59:30;;;;;;;10.20;9.37;;;;;;;23.04;59.69;99513.94;5015312;28;20206;-77
2022/08/15 05:01:56;;;;;;;10.30;9.70;;;;;;;22.98;60.12;99504.63;5014916;28;20278;-76
2022/08/15 05:04:24;;;;;;;11.10;10.40;;;;;;;22.97;59.75;99519.75;5014917;28;20209;-77
2022/08/15 05:06:50;;;;;;;11.53;10.70;;;;;;;22.93;60.84;99493.50;5014689;28;20253;-76
2022/08/15 05:09:17;;;;;;;10.87;10.27;;;;;;;22.89;61.40;99458.31;5015048;28;20288;-77
2022/08/15 05:11:43;;;;;;;10.77;9.93;;;;;;;22.85;61.39;99456.91;5014980;28;20264;-76
2022/08/15 05:14:09;;;;;;;10.47;9.77;;;;;;;22.82;61.70;99441.22;5014811;28;20234;-77
2022/08/15 05:16:36;;;;;;;10.60;9.90;;;;;;;22.79;61.21;99458.31;5014589;28;20218;-76
2022/08/15 05:19:02;;;;;;;10.93;10.20;;;;;;;22.80;61.60;99462.63;5014332;28;20210;-76
2022/08/15 05:21:30;;;;;;;10.73;10.10;;;;;;;22.81;61.94;99431.53;5014714;28;20273;-76
2022/08/15 05:23:57;;;;;;;10.97;10.07;;;;;;;22.80;62.93;99393.44;5013511;28;20227;-77
2022/08/15 05:26:23;;;;;;;10.20;9.47;;;;;;;22.80;62.35;99390.78;5014234;28;20257;-77
2022/08/15 05:28:50;;;;;;;10.67;9.73;;;;;;;22.80;62.20;99414.72;5014345;28;20264;-77
2022/08/15 05:31:17;;;;;;;11.27;10.27;;;;;;;22.74;62.86;99403.78;5013954;28;20206;-77
2022/08/15 05:33:46;;;;;;;10.90;9.47;;;;;;;22.78;62.47;99387.41;5010911;28;20218;-77
2022/08/15 05:36:13;;;;;;;10.73;9.80;;;;;;;22.79;61.80;99414.88;5013589;28;20245;-77
2022/08/15 05:38:46;;;;;;;10.07;9.37;;;;;;;22.83;61.63;99426.91;5013282;28;20210;-77
2022/08/15 05:41:22;;;;;;;9.90;9.20;;;;;;;22.85;61.89;99424.97;5013958;28;20206;-77
2022/08/15 05:43:57;;;;;;;10.37;9.37;;;;;;;22.71;61.75;99420.84;5011367;28;20241;-77
2022/08/15 05:46:31;;;;;;;10.40;9.80;;;;;;;22.73;62.13;99420.72;5013475;28;20256;-76
2022/08/15 05:49:02;;;;;;;10.30;9.40;;;;;;;22.79;62.36;99397.09;5013098;28;20255;-77
2022/08/15 05:51:35;;;;;;;10.73;9.97;;;;;;;22.82;62.17;99395.97;5013345;28;20684;-77
2022/08/15 05:54:21;;;;;;;10.77;9.87;;;;;;;22.86;61.94;99397.41;5011134;28;20218;-77
2022/08/15 05:56:55;;;;;;;10.60;9.90;;;;;;;22.92;62.32;99409.34;5011845;28;20194;-77
2022/08/15 05:59:30;;;;;;;10.80;9.97;;;;;;;22.94;63.51;99365.63;5011499;28;20258;-77
2022/08/15 06:02:01;;;;;;;11.10;10.17;;;;;;;22.98;63.90;99342.25;5013338;28;20198;-78
2022/08/15 06:04:38;;;;;;;11.53;10.73;;;;;;;23.04;64.23;99328.44;5012985;28;20257;-77
2022/08/15 06:07:11;;;;;;;10.90;10.20;;;;;;;23.10;64.64;99305.75;5011187;28;20643;-77
2022/08/15 06:09:42;;;;;;;10.97;10.17;;;;;;;23.13;64.27;99310.78;5013801;28;20250;-77
2022/08/15 06:12:13;;;;;;;10.47;9.87;;;;;;;23.17;64.20;99330.81;5013538;28;20707;-77
2022/08/15 06:14:43;;;;;;;10.33;9.53;;;;;;;23.20;64.17;99336.72;5013627;28;20296;-77
2022/08/15 06:17:15;;;;;;;10.47;9.77;;;;;;;23.23;64.35;99334.75;5013374;28;20608;-77
2022/08/15 06:19:47;;;;;;;9.63;8.93;;;;;;;23.28;62.51;99375.97;5012618;28;20224;-76
2022/08/15 06:22:38;;;;;;;11.20;10.20;;;;;;;23.31;62.55;99401.50;5012738;28;20729;-76
2022/08/15 06:25:16;;;;;;;12.47;9.63;;;;;;;23.31;63.40;99369.53;5013096;28;20592;-76
2022/08/15 06:27:56;;;;;;;14.27;9.17;;;;;;;23.34;63.39;99375.44;5013327;28;20257;-76
2022/08/15 06:30:28;;;;;;;10.30;9.47;;;;;;;23.35;63.75;99360.31;5013209;28;20214;-76
2022/08/15 06:33:02;;;;;;;11.03;10.10;;;;;;;23.38;63.56;99365.34;5012799;28;20626;-76
2022/08/15 06:35:35;;;;;;;11.27;10.17;;;;;;;23.38;63.74;99373.34;5014398;28;20335;-78
2022/08/15 06:38:09;;;;;;;10.53;9.70;;;;;;;23.39;63.98;99351.91;5014173;28;20269;-77
2022/08/15 06:40:46;;;;;;;10.60;9.80;;;;;;;23.41;64.11;99362.44;5013190;28;20297;-78
2022/08/15 06:43:13;;;;;;;11.20;10.43;;;;;;;23.41;63.60;99362.44;5013425;28;20229;-78
2022/08/15 06:45:44;;;;;;;11.70;10.70;;;;;;;23.44;63.23;99380.78;5013019;28;20191;-78
2022/08/15 06:48:14;;;;;;;13.03;11.50;;;;;;;23.44;63.09;99385.28;5012548;28;20214;-78
2022/08/15 06:50:45;;;;;;;11.23;10.47;;;;;;;23.47;64.07;99380.53;5012486;28;20202;-77
2022/08/15 06:53:16;;;;;;;11.57;10.67;;;;;;;23.51;64.16;99363.28;5012501;28;20245;-78
2022/08/15 06:55:52;;;;;;;12.87;11.90;;;;;;;23.54;64.10;99364.81;5009542;28;20268;-78
2022/08/15 06:58:27;;;;;;;12.47;11.37;;;;;;;23.58;64.75;99359.06;5012743;28;20199;-77
2022/08/15 07:01:01;;;;;;;12.90;11.73;;;;;;;23.64;64.77;99338.19;5012944;28;20582;-78
2022/08/15 07:03:39;;;;;;;12.77;11.47;;;;;;;23.64;64.90;99333.69;5008523;28;20222;-78
2022/08/15 07:06:09;;;;;;;11.80;10.90;;;;;;;23.70;64.12;99351.78;5003699;28;20257;-78
2022/08/15 07:08:41;;;;;;;11.97;11.03;;;;;;;23.75;63.54;99383.34;5005338;28;20724;-77
2022/08/15 07:11:16;;;;;;;11.47;10.40;;;;;;;23.77;63.68;99382.25;5004697;28;20261;-78
2022/08/15 07:13:53;;;;;;;11.47;10.47;;;;;;;23.82;63.22;99410.31;5011194;28;20280;-77
2022/08/15 07:16:25;;;;;;;11.90;10.87;;;;;;;23.84;63.21;99406.50;5011040;28;20226;-77
2022/08/15 07:18:57;;;;;;;11.80;10.73;;;;;;;23.85;63.00;99400.22;5013824;28;20201;-78
2022/08/15 07:21:25;;;;;;;11.70;10.90;;;;;;;23.85;63.65;99402.06;5010880;28;20199;-78
2022/08/15 07:24:06;;;;;;;11.37;10.57;;;;;;;23.85;64.30;99351.41;5013673;28;20583;-77
2022/08/15 07:26:45;;;;;;;12.77;11.17;;;;;;;23.84;63.46;99366.53;5013373;28;20835;-78
2022/08/15 07:29:18;;;;;;;12.13;10.90;;;;;;;23.87;63.23;99398.25;5010874;28;20250;-77
2022/08/15 07:31:45;;;;;;;12.67;11.27;;;;;;;23.93;64.39;99375.53;5002033;28;20665;-77
2022/08/15 07:34:20;;;;;;;12.30;11.23;;;;;;;23.97;64.19;99363.59;5004903;28;20227;-76
2022/08/15 07:36:55;;;;;;;12.53;11.50;;;;;;;24.02;63.78;99376.50;5013424;28;20687;-77
2022/08/15 07:39:24;;;;;;;12.43;11.23;;;;;;;24.10;62.95;99387.28;5013220;28;20217;-77
2022/08/15 07:41:53;;;;;;;11.70;10.80;;;;;;;24.15;62.06;99422.38;5013454;28;20242;-77
2022/08/15 07:44:24;;;;;;;11.07;10.23;;;;;;;24.23;61.70;99451.03;5013380;28;20202;-77
2022/08/15 07:46:56;;;;;;;12.70;10.73;;;;;;;24.31;61.68;99446.66;5013192;28;20207;-76
2022/08/15 07:49:26;;;;;;;13.67;10.90;;;;;;;24.44;60.98;99480.19;5012675;28;20703;-76
2022/08/15 07:52:01;;;;;;;12.17;10.67;;;;;;;24.50;60.78;99493.84;5013343;28;20207;-77
2022/08/15 07:54:30;;;;;;;11.80;10.87;;;;;;;24.55;60.32;99504.91;5011150;28;20253;-77
2022/08/15 07:57:03;;;;;;;12.13;11.23;;;;;;;24.61;60.31;99498.19;5013604;28;20199;-77
2022/08/15 07:59:33;;;;;;;15.23;11.20;;;;;;;24.68;59.63;99496.63;5013249;28;20207;-77
2022/08/15 08:02:09;;;;;;;14.33;10.00;;;;;;;24.76;60.03;99511.94;5013279;28;20218;-77
2022/08/15 08:04:36;;;;;;;11.33;10.33;;;;;;;24.82;58.99;99526.53;5013334;28;20233;-77
2022/08/15 08:07:07;;;;;;;11.77;10.73;;;;;;;24.88;59.01;99540.16;5017765;28;20211;-77
2022/08/15 08:09:40;;;;;;;10.80;9.93;;;;;;;24.94;58.31;99536.06;5018015;28;20210;-77
2022/08/15 08:12:20;;;;;;;11.83;10.73;;;;;;;25.03;58.18;99556.53;5017978;28;20202;-77
2022/08/15 08:14:55;;;;;;;11.13;10.33;;;;;;;25.11;57.80;99562.03;5017917;28;20201;-77
2022/08/15 08:17:30;;;;;;;11.63;10.53;;;;;;;25.21;58.74;99570.00;5017956;28;20216;-76
2022/08/15 08:20:05;;;;;;;10.47;9.83;;;;;;;25.29;58.19;99534.59;5017470;28;20297;-77
2022/08/15 08:22:40;;;;;;;10.27;9.57;;;;;;;25.40;58.32;99546.94;5015668;28;20225;-77
2022/08/15 08:25:14;;;;;;;11.47;10.47;;;;;;;25.53;56.67;99590.19;5017743;28;20229;-77
2022/08/15 08:27:51;;;;;;;12.30;11.37;;;;;;;25.62;56.48;99596.50;5017560;28;20195;-77
2022/08/15 08:30:21;;;;;;;12.43;11.20;;;;;;;25.65;56.55;99623.78;5015797;28;20226;-77
2022/08/15 08:32:57;;;;;;;12.70;11.43;;;;;;;25.67;57.17;99572.81;5014628;28;20221;-77
2022/08/15 08:35:34;;;;;;;11.17;9.77;;;;;;;25.75;56.33;99615.72;5017058;28;20585;-77
2022/08/15 08:38:13;;;;;;;12.13;11.07;;;;;;;25.80;55.91;99621.47;5017525;28;20199;-77
2022/08/15 08:43:43;;;;;;;11.33;10.43;;;;;;;25.77;56.13;99606.56;5015449;28;20249;-77
2022/08/15 08:46:23;;;;;;;10.67;9.67;;;;;;;25.76;56.26;99604.88;5014917;28;20214;-77
2022/08/15 08:48:57;;;;;;;10.60;9.90;;;;;;;25.77;56.22;99587.00;5016570;28;20210;-77
2022/08/15 08:51:34;;;;;;;10.67;9.63;;;;;;;25.75;56.54;99589.81;5017527;28;20194;-77
2022/08/15 08:54:06;;;;;;;10.73;9.73;;;;;;;25.76;56.62;99574.63;5017056;28;20218;-77
2022/08/15 08:56:38;;;;;;;10.10;9.20;;;;;;;25.74;56.22;99593.47;5016940;28;20227;-76
2022/08/15 08:59:16;;;;;;;10.30;9.50;;;;;;;25.73;56.84;99597.16;5017080;28;20703;-77
2022/08/15 09:01:43;;;;;;;10.17;9.37;;;;;;;25.74;56.34;99584.63;5017175;28;20659;-77
2022/08/15 09:04:14;;;;;;;10.43;9.63;;;;;;;25.73;56.52;99605.19;5016050;28;20273;-77
2022/08/15 09:06:43;;;;;;;10.03;9.27;;;;;;;25.73;57.42;99553.53;5016781;28;20209;-77
2022/08/15 09:09:15;;;;;;;12.17;9.70;;;;;;;25.76;57.67;99539.88;5016394;28;20683;-77
2022/08/15 09:11:46;;;;;;;10.30;9.43;;;;;;;25.81;56.62;99567.00;5016772;28;20218;-77
2022/08/15 09:14:25;;;;;;;10.60;9.80;;;;;;;25.93;55.21;99608.63;5016732;28;20748;-77
2022/08/15 09:16:55;;;;;;;10.77;9.77;;;;;;;26.08;55.34;99627.69;5015906;28;20231;-77
2022/08/15 09:19:27;;;;;;;9.93;8.90;;;;;;;26.14;54.90;99648.50;5019189;28;20294;-78
2022/08/15 09:21:53;;;;;;;9.73;8.97;;;;;;;26.30;54.82;99628.25;5012237;28;20202;-77
2022/08/15 09:24:22;;;;;;;10.07;9.33;;;;;;;26.46;54.41;99660.59;5017995;28;20211;-77
2022/08/15 09:26:56;;;;;;;15.33;9.57;;;;;;;26.60;53.79;99683.34;5017222;28;20245;-79
2022/08/15 09:29:29;;;;;;;9.97;9.07;;;;;;;26.74;54.45;99665.91;5016495;28;20260;-77
2022/08/15 09:32:23;;;;;;;9.57;8.97;;;;;;;26.90;53.50;99673.25;5016380;28;20207;-76
2022/08/15 09:35:07;;;;;;;9.97;9.30;;;;;;;27.02;51.72;99755.06;5015449;28;20215;-76
2022/08/15 09:38:06;;;;;;;9.37;8.57;;;;;;;27.25;53.22;99695.69;5015398;28;20615;-77
2022/08/15 09:40:49;;;;;;;9.80;9.20;;;;;;;27.37;49.17;99824.94;5015238;28;20229;-76
2022/08/15 09:43:44;;;;;;;9.53;8.67;;;;;;;27.45;47.89;99868.78;5016582;28;20277;-77
2022/08/15 09:46:37;;;;;;;9.00;8.37;;;;;;;27.51;49.46;99886.91;4990933;28;20254;-77
2022/08/15 09:49:19;;;;;;;9.40;8.73;;;;;;;27.63;51.12;99774.06;5016223;28;20238;-77
2022/08/15 09:51:58;;;;;;;9.23;8.53;;;;;;;27.61;48.74;99806.41;5016109;28;20202;-77
2022/08/15 09:54:29;;;;;;;9.17;8.27;;;;;;;27.64;47.56;99888.38;5015885;28;20206;-77
2022/08/15 09:57:21;;;;;;;9.50;8.80;;;;;;;27.78;47.48;99890.50;5017191;28;20275;-78
2022/08/15 09:59:52;;;;;;;9.07;8.47;;;;;;;27.88;48.02;99863.63;5018171;28;20214;-77
2022/08/15 10:02:27;;;;;;;9.57;8.83;;;;;;;27.99;47.80;99862.53;5016517;28;20223;-77
2022/08/15 10:05:23;;;;;;;9.07;8.37;;;;;;;28.11;46.71;99877.41;5015297;28;20209;-77
2022/08/15 10:07:52;;;;;;;8.90;8.10;;;;;;;28.19;44.99;99933.84;5014436;28;20230;-77
2022/08/15 10:10:25;;;;;;;8.60;8.00;;;;;;;28.38;46.99;99946.22;5015459;28;20265;-76
2022/08/15 10:13:26;;;;;;;10.47;9.63;;;;;;;28.40;46.55;99943.38;5004013;28;20215;-77
2022/08/15 10:15:55;;;;;;;10.37;9.67;;;;;;;28.38;46.88;99880.94;5003068;28;20308;-77
2022/08/15 10:18:59;;;;;;;9.77;9.17;;;;;;;28.35;46.65;99865.16;5015773;28;20279;-77
2022/08/15 10:21:35;;;;;;;11.00;10.00;;;;;;;28.34;46.29;99850.88;5013005;28;20226;-77
2022/08/15 10:24:07;;;;;;;10.83;9.83;;;;;;;28.43;47.15;99859.84;5016292;28;20321;-77
2022/08/15 10:26:36;;;;;;;10.20;9.30;;;;;;;28.47;45.51;99913.06;5015621;28;20210;-77
2022/08/15 10:29:11;;;;;;;9.33;8.73;;;;;;;28.66;44.95;99941.59;5015897;28;20207;-78
2022/08/15 10:31:43;;;;;;;10.17;9.30;;;;;;;28.94;45.53;99914.53;5009173;28;20199;-82
2022/08/15 10:34:34;;;;;;;10.13;9.23;;;;;;;29.11;45.73;99910.91;5012153;28;20932;-77
2022/08/15 10:37:15;;;;;;;9.97;9.37;;;;;;;29.33;46.19;99908.66;5016476;28;20222;-77
2022/08/15 10:40:08;;;;;;;9.53;8.93;;;;;;;29.45;44.62;99907.31;5016750;28;20242;-78
2022/08/15 10:42:44;;;;;;;8.93;8.30;;;;;;;29.71;42.21;99938.66;5015804;28;20223;-77
2022/08/15 10:45:17;;;;;;;9.87;9.27;;;;;;;29.86;43.06;100006.16;5017030;28;20708;-78
2022/08/15 10:47:54;;;;;;;9.80;8.93;;;;;;;29.82;42.13;100045.16;5015772;28;20206;-78
2022/08/15 10:50:45;;;;;;;9.60;9.10;;;;;;;29.94;41.89;100021.50;5090717;28;20557;-78
2022/08/15 10:53:21;;;;;;;10.13;9.53;;;;;;;29.96;43.31;100011.41;5073832;28;20319;-78
2022/08/15 10:55:48;;;;;;;9.20;8.30;;;;;;;29.98;41.39;100066.75;5060430;28;20251;-80
2022/08/15 10:58:18;;;;;;;10.50;9.87;;;;;;;30.16;40.96;100057.69;5065133;28;20204;-81
2022/08/15 11:00:51;;;;;;;10.13;9.33;;;;;;;30.25;40.74;100084.47;5066409;28;20198;-79
2022/08/15 11:03:23;;;;;;;10.03;9.33;;;;;;;30.39;42.66;100037.22;5059696;28;20303;-78
2022/08/15 11:06:00;;;;;;;10.00;9.10;;;;;;;30.29;39.02;100112.75;5058113;28;20702;-78
2022/08/15 11:08:26;;;;;;;9.97;9.37;;;;;;;30.31;40.22;100095.59;5059614;28;20221;-79
2022/08/15 11:11:00;;;;;;;10.37;9.67;;;;;;;30.10;38.86;100105.78;5063073;28;20197;-79
2022/08/15 11:13:31;;;;;;;9.33;8.83;;;;;;;29.98;38.86;100117.03;5062839;28;20228;-79
2022/08/15 11:16:07;;;;;;;9.80;9.10;;;;;;;29.54;39.94;100107.25;5061861;28;20212;-79
2022/08/15 11:18:36;;;;;;;10.93;10.10;;;;;;;29.34;41.56;100055.53;5063886;28;20189;-79
2022/08/15 11:21:18;;;;;;;11.23;10.33;;;;;;;29.06;42.74;99987.66;5066932;28;20202;-79
2022/08/15 11:23:53;;;;;;;10.87;10.17;;;;;;;28.82;43.32;99950.72;5063219;28;20614;-80
2022/08/15 11:26:27;;;;;;;11.03;10.17;;;;;;;28.84;44.24;99925.41;5062409;28;20200;-80
2022/08/15 11:29:09;;;;;;;11.57;10.73;;;;;;;28.66;45.47;99887.00;5063357;28;20221;-81
2022/08/15 11:31:43;;;;;;;10.87;10.07;;;;;;;28.56;45.50;99871.00;5064667;28;20231;-80
2022/08/15 11:34:23;;;;;;;10.80;9.97;;;;;;;28.27;47.34;99842.63;5062236;28;20221;-80
2022/08/15 11:36:53;;;;;;;10.00;9.20;;;;;;;27.77;48.23;99767.28;5064279;28;20202;-80
2022/08/15 11:39:21;;;;;;;10.93;9.37;;;;;;;27.65;47.81;99759.50;5062189;28;20671;-79
2022/08/15 11:41:52;;;;;;;9.20;8.60;;;;;;;26.97;48.19;99772.59;5062763;28;20201;-79
2022/08/15 11:44:20;;;;;;;9.10;8.50;;;;;;;26.97;47.08;99780.63;5060954;28;20653;-78
2022/08/15 11:46:47;;;;;;;9.13;8.33;;;;;;;27.39;45.93;99847.91;5059433;28;20201;-79
2022/08/15 11:49:26;;;;;;;7.50;6.90;;;;;;;27.33;44.44;99915.53;5063215;28;20271;-79
2022/08/15 11:52:02;;;;;;;8.20;7.70;;;;;;;26.87;47.18;99851.16;5064473;28;20201;-79
2022/08/15 11:54:29;;;;;;;8.90;8.30;;;;;;;26.51;50.43;99730.53;5060600;28;20193;-78